createdAt,value
2022-09-26T00:00:23.185Z,99554.47
2022-09-26T00:02:52.956Z,99552.59
2022-09-26T00:05:22.799Z,99552.44
2022-09-26T00:07:52.563Z,99552.81
2022-09-26T00:10:22.689Z,99547.13
2022-09-26T00:12:53.331Z,99552.09
2022-09-26T00:15:25.009Z,99556.91
2022-09-26T00:17:54.833Z,99561.63
2022-09-26T00:20:24.625Z,99569.16
2022-09-26T00:22:54.408Z,99560.78
2022-09-26T00:25:24.203Z,99554.41
2022-09-26T00:27:53.964Z,99557.09
2022-09-26T00:30:25.230Z,99559.00
2022-09-26T00:32:55.013Z,99564.13
2022-09-26T00:35:24.860Z,99558.47
2022-09-26T00:37:54.728Z,99561.41
2022-09-26T00:40:28.120Z,99554.09
2022-09-26T00:42:58.412Z,99556.47
2022-09-26T00:45:31.567Z,99558.25
2022-09-26T00:48:05.189Z,99529.50
2022-09-26T00:50:37.433Z,99541.78
2022-09-26T00:53:11.042Z,99543.00
2022-09-26T00:55:54.741Z,99547.38
2022-09-26T00:58:29.773Z,99554.72
2022-09-26T01:01:01.793Z,99539.56
2022-09-26T01:03:33.053Z,99546.97
2022-09-26T01:06:02.965Z,99552.03
2022-09-26T01:08:37.839Z,99552.59
2022-09-26T01:11:11.574Z,99554.47
2022-09-26T01:13:45.572Z,99550.25
2022-09-26T01:16:16.881Z,99549.53
2022-09-26T01:18:48.110Z,99554.88
2022-09-26T01:21:44.827Z,99537.47
2022-09-26T01:24:41.066Z,99539.22
2022-09-26T01:27:43.554Z,99536.94
2022-09-26T01:30:18.009Z,99540.75
2022-09-26T01:33:24.790Z,99545.91
2022-09-26T01:36:24.262Z,99539.22
2022-09-26T01:39:04.306Z,99533.53
2022-09-26T01:41:45.352Z,99536.28
2022-09-26T01:44:27.454Z,99535.94
2022-09-26T01:47:06.442Z,99532.31
2022-09-26T01:49:53.213Z,99536.72
2022-09-26T01:52:32.604Z,99517.69
2022-09-26T01:55:08.392Z,99529.78
2022-09-26T01:57:44.960Z,99522.72
2022-09-26T02:00:15.843Z,99508.88
2022-09-26T02:02:49.867Z,99539.56
2022-09-26T02:05:26.684Z,99540.56
2022-09-26T02:08:01.020Z,99538.00
2022-09-26T02:10:36.174Z,99540.88
2022-09-26T02:13:10.517Z,99526.59
2022-09-26T02:15:41.526Z,99533.41
2022-09-26T02:18:19.034Z,99470.78
2022-09-26T02:20:52.890Z,99536.00
2022-09-26T02:23:23.092Z,99542.91
2022-09-26T02:25:52.877Z,99536.44
2022-09-26T02:28:23.115Z,99542.75
2022-09-26T02:30:55.272Z,99523.41
2022-09-26T02:33:26.533Z,99537.22
2022-09-26T02:35:57.528Z,99530.09
2022-09-26T02:38:30.525Z,99536.31
2022-09-26T02:41:06.950Z,99529.19
2022-09-26T02:44:04.009Z,99525.59
2022-09-26T02:47:02.053Z,99528.56
2022-09-26T02:50:08.429Z,99526.84
2022-09-26T02:52:51.852Z,99519.28
2022-09-26T02:55:25.880Z,99509.81
2022-09-26T02:58:03.968Z,99509.47
2022-09-26T03:00:45.301Z,99511.94
2022-09-26T03:03:23.393Z,99510.91
2022-09-26T03:05:58.875Z,99516.41
2022-09-26T03:08:32.010Z,99506.69
2022-09-26T03:11:04.931Z,99502.25
2022-09-26T03:13:36.762Z,99503.50
2022-09-26T03:16:08.579Z,99507.38
2022-09-26T03:18:45.042Z,99511.59
2022-09-26T03:21:16.688Z,99506.69
2022-09-26T03:23:47.037Z,99473.28
2022-09-26T03:26:24.545Z,99508.41
2022-09-26T03:28:56.780Z,99507.97
2022-09-26T03:31:27.284Z,99506.03
2022-09-26T03:33:57.160Z,99517.22
2022-09-26T03:36:29.486Z,99518.34
2022-09-26T03:38:59.339Z,99514.59
2022-09-26T03:41:29.061Z,99515.72
2022-09-26T03:43:59.014Z,99505.59
2022-09-26T03:46:29.022Z,99521.66
2022-09-26T03:48:59.092Z,99522.22
2022-09-26T03:51:30.266Z,99524.50
2022-09-26T03:54:00.264Z,99510.13
2022-09-26T03:56:30.024Z,99522.66
2022-09-26T03:58:59.846Z,99521.69
2022-09-26T04:01:29.909Z,99528.00
2022-09-26T04:03:59.792Z,99518.28
2022-09-26T04:06:30.979Z,99517.00
2022-09-26T04:09:00.903Z,99516.28
2022-09-26T04:11:30.964Z,99517.19
2022-09-26T04:14:00.698Z,99510.25
2022-09-26T04:16:31.687Z,99482.13
2022-09-26T04:19:01.495Z,99497.94
2022-09-26T04:21:35.629Z,99491.75
2022-09-26T04:24:07.379Z,99484.47
2022-09-26T04:26:37.208Z,99486.13
2022-09-26T04:29:07.080Z,99492.06
2022-09-26T04:31:37.816Z,99503.22
2022-09-26T04:34:08.008Z,99483.53
2022-09-26T04:36:39.413Z,99516.31
2022-09-26T04:39:09.349Z,99511.78
2022-09-26T04:41:39.396Z,99511.63
2022-09-26T04:44:12.808Z,99516.66
2022-09-26T04:46:42.663Z,99514.88
2022-09-26T04:49:12.706Z,99511.75
2022-09-26T04:51:44.264Z,99506.59
2022-09-26T04:54:14.144Z,99506.59
2022-09-26T04:56:44.225Z,99504.19
2022-09-26T04:59:14.536Z,99510.69
2022-09-26T05:01:44.733Z,99520.28
2022-09-26T05:04:14.613Z,99512.66
2022-09-26T05:06:45.925Z,99509.97
2022-09-26T05:09:15.909Z,99502.53
2022-09-26T05:11:45.751Z,99498.41
2022-09-26T05:14:15.459Z,99502.19
2022-09-26T05:16:45.346Z,99495.22
2022-09-26T05:19:15.209Z,99501.69
2022-09-26T05:21:46.884Z,99496.13
2022-09-26T05:24:34.036Z,99503.22
2022-09-26T05:27:07.621Z,99502.91
2022-09-26T05:29:37.688Z,99500.13
2022-09-26T05:32:13.096Z,99501.41
2022-09-26T05:34:42.873Z,99496.81
2022-09-26T05:37:14.022Z,99496.44
2022-09-26T05:40:00.931Z,99512.19
2022-09-26T05:42:30.824Z,99511.22
2022-09-26T05:45:03.268Z,99513.13
2022-09-26T05:47:36.266Z,99508.16
2022-09-26T05:50:10.051Z,99512.06
2022-09-26T05:52:41.144Z,99511.38
2022-09-26T05:55:11.996Z,99510.34
2022-09-26T05:57:51.594Z,99510.16
2022-09-26T06:00:21.778Z,99513.31
2022-09-26T06:02:56.872Z,99509.31
2022-09-26T06:05:26.924Z,99500.25
2022-09-26T06:08:00.390Z,99492.00
2022-09-26T06:10:31.727Z,99496.28
2022-09-26T06:13:02.700Z,99500.81
2022-09-26T06:15:32.997Z,99508.72
2022-09-26T06:18:05.478Z,99505.41
2022-09-26T06:20:35.852Z,99504.94
2022-09-26T06:23:07.162Z,99501.97
2022-09-26T06:25:37.260Z,99503.75
2022-09-26T06:28:07.357Z,99499.59
2022-09-26T06:30:37.326Z,99495.06
2022-09-26T06:33:08.547Z,99486.84
2022-09-26T06:35:38.428Z,99491.69
2022-09-26T06:38:09.865Z,99499.25
2022-09-26T06:40:39.691Z,99488.16
2022-09-26T06:43:09.658Z,99491.38
2022-09-26T06:45:39.449Z,99491.56
2022-09-26T06:48:09.398Z,99493.91
2022-09-26T06:50:39.477Z,99498.44
2022-09-26T06:53:10.908Z,99504.47
2022-09-26T06:55:40.692Z,99500.13
2022-09-26T06:58:10.476Z,99496.59
2022-09-26T07:00:40.473Z,99495.75
2022-09-26T07:03:11.502Z,99483.59
2022-09-26T07:05:41.628Z,99488.00
2022-09-26T07:08:12.855Z,99483.28
2022-09-26T07:10:42.878Z,99484.44
2022-09-26T07:13:12.799Z,99493.81
2022-09-26T07:15:46.880Z,99492.41
2022-09-26T07:18:17.351Z,99494.44
2022-09-26T07:20:47.784Z,99503.50
2022-09-26T07:23:19.119Z,99501.19
2022-09-26T07:25:49.013Z,99474.59
2022-09-26T07:28:19.220Z,99456.09
2022-09-26T07:30:49.623Z,99461.25
2022-09-26T07:33:19.456Z,99467.41
2022-09-26T07:35:49.783Z,99463.34
2022-09-26T07:38:21.844Z,99462.25
2022-09-26T07:40:53.869Z,99457.56
2022-09-26T07:43:37.763Z,99453.13
2022-09-26T07:46:34.335Z,99453.31
2022-09-26T07:49:22.638Z,99440.50
2022-09-26T07:51:55.494Z,99451.72
2022-09-26T07:54:27.109Z,99444.97
2022-09-26T07:56:56.898Z,99451.00
2022-09-26T07:59:26.890Z,99454.91
2022-09-26T08:01:58.140Z,99442.66
2022-09-26T08:04:28.493Z,99443.00
2022-09-26T08:06:59.542Z,99453.03
2022-09-26T08:09:30.991Z,99441.06
2022-09-26T08:12:01.735Z,99458.63
2022-09-26T08:14:32.154Z,99446.38
2022-09-26T08:17:02.075Z,99442.94
2022-09-26T08:19:32.397Z,99440.81
2022-09-26T08:22:02.323Z,99429.72
2022-09-26T08:24:33.674Z,99441.00
2022-09-26T08:27:03.463Z,99441.09
2022-09-26T08:29:34.158Z,99434.94
2022-09-26T08:32:04.319Z,99426.88
2022-09-26T08:34:35.234Z,99424.38
2022-09-26T08:37:05.012Z,99427.66
2022-09-26T08:39:36.555Z,99288.28
2022-09-26T08:42:23.986Z,99405.94
2022-09-26T08:45:26.757Z,99408.84
2022-09-26T08:48:06.591Z,99392.50
2022-09-26T08:50:44.454Z,99392.63
2022-09-26T08:53:18.275Z,99386.13
2022-09-26T08:55:50.959Z,99390.03
2022-09-26T08:58:28.886Z,99371.94
2022-09-26T09:01:02.819Z,99387.69
2022-09-26T09:03:37.826Z,99371.69
2022-09-26T09:06:11.851Z,99370.09
2022-09-26T09:08:43.709Z,99364.09
2022-09-26T09:11:27.917Z,99360.59
2022-09-26T09:14:12.503Z,99362.81
2022-09-26T09:16:53.990Z,99364.53
2022-09-26T09:19:35.517Z,99360.94
2022-09-26T09:22:22.417Z,99338.97
2022-09-26T09:24:59.573Z,99338.38
2022-09-26T09:28:03.991Z,99330.47
2022-09-26T09:30:41.333Z,99316.06
2022-09-26T09:33:15.541Z,99329.78
2022-09-26T09:35:49.283Z,99328.81
2022-09-26T09:38:23.974Z,99325.34
2022-09-26T09:41:01.856Z,99330.41
2022-09-26T09:43:38.497Z,99335.84
2022-09-26T09:46:17.946Z,99292.69
2022-09-26T09:48:49.889Z,99317.97
2022-09-26T09:51:39.611Z,99311.72
2022-09-26T09:54:25.960Z,99318.84
2022-09-26T09:57:20.323Z,99321.78
2022-09-26T10:00:06.591Z,99312.03
2022-09-26T10:02:44.239Z,99298.88
2022-09-26T10:05:25.029Z,99299.72
2022-09-26T10:07:58.150Z,99293.66
2022-09-26T10:10:37.576Z,99308.25
2022-09-26T10:13:10.819Z,99312.22
2022-09-26T10:15:50.711Z,99316.19
2022-09-26T10:18:26.414Z,99299.88
2022-09-26T10:21:02.214Z,99261.06
2022-09-26T10:23:35.159Z,99278.97
2022-09-26T10:26:07.688Z,99277.72
2022-09-26T10:28:46.803Z,99256.59
2022-09-26T10:31:25.997Z,99255.75
2022-09-26T10:34:00.227Z,99260.53
2022-09-26T10:36:32.204Z,99248.13
2022-09-26T10:39:24.203Z,99224.09
2022-09-26T10:42:01.059Z,99237.53
2022-09-26T10:44:34.802Z,99217.97
2022-09-26T10:47:09.446Z,99196.91
2022-09-26T10:49:47.702Z,99209.06
2022-09-26T10:52:23.804Z,99211.06
2022-09-26T10:54:59.057Z,99193.47
2022-09-26T10:57:35.941Z,99203.38
2022-09-26T11:00:08.781Z,99211.34
2022-09-26T11:02:47.512Z,99200.03
2022-09-26T11:05:35.816Z,99202.97
2022-09-26T11:08:08.868Z,99196.25
2022-09-26T11:10:41.666Z,99175.75
2022-09-26T11:13:17.783Z,99180.19
2022-09-26T11:16:01.562Z,99182.66
2022-09-26T11:18:40.866Z,99179.69
2022-09-26T11:21:28.181Z,99171.38
2022-09-26T11:24:05.298Z,99176.22
2022-09-26T11:26:39.970Z,99174.34
2022-09-26T11:29:19.315Z,99166.63
2022-09-26T11:31:49.633Z,99163.59
2022-09-26T11:34:27.212Z,99164.50
2022-09-26T11:37:14.533Z,99155.22
2022-09-26T11:39:51.633Z,99151.50
2022-09-26T11:42:34.140Z,99152.50
2022-09-26T11:45:16.668Z,99154.41
2022-09-26T11:48:15.309Z,99152.38
2022-09-26T11:50:56.959Z,99144.13
2022-09-26T11:53:46.952Z,99142.53
2022-09-26T11:56:48.198Z,99152.66
2022-09-26T11:59:39.790Z,99151.28
2022-09-26T12:02:31.946Z,99139.59
2022-09-26T12:05:27.308Z,99141.31
2022-09-26T12:08:20.424Z,99128.94
2022-09-26T12:10:57.814Z,99118.81
2022-09-26T12:13:35.335Z,99118.75
2022-09-26T12:16:14.605Z,99107.00
2022-09-26T12:18:59.499Z,99108.66
2022-09-26T12:22:02.781Z,99109.13
2022-09-26T12:24:41.329Z,99105.19
2022-09-26T12:27:20.588Z,99094.25
2022-09-26T12:30:02.295Z,99091.63
2022-09-26T12:32:58.405Z,99090.69
2022-09-26T12:35:45.315Z,99068.09
2022-09-26T12:38:39.592Z,99081.25
2022-09-26T12:41:27.354Z,99060.25
2022-09-26T12:44:13.725Z,99070.06
2022-09-26T12:47:25.033Z,99071.25
2022-09-26T12:50:14.019Z,99060.00
2022-09-26T12:53:19.355Z,99063.94
2022-09-26T12:56:06.278Z,99065.16
2022-09-26T12:59:05.308Z,99057.88
2022-09-26T13:01:51.629Z,99053.53
2022-09-26T13:04:44.895Z,99048.56
2022-09-26T13:07:27.787Z,99040.72
2022-09-26T13:10:24.287Z,99039.50
2022-09-26T13:13:13.009Z,99027.19
2022-09-26T13:15:58.920Z,99030.75
2022-09-26T13:18:38.096Z,99034.72
2022-09-26T13:21:14.011Z,99033.59
2022-09-26T13:23:53.942Z,99036.47
2022-09-26T13:26:28.994Z,99034.34
2022-09-26T13:29:19.913Z,99033.22
2022-09-26T13:31:59.808Z,99034.25
2022-09-26T13:34:37.625Z,99028.56
2022-09-26T13:37:29.082Z,99017.34
2022-09-26T13:40:09.544Z,99032.03
2022-09-26T13:42:46.419Z,99037.00
2022-09-26T13:45:28.050Z,99034.13
2022-09-26T13:48:06.992Z,99028.72
2022-09-26T13:50:45.231Z,99032.47
2022-09-26T13:53:21.791Z,99029.56
2022-09-26T13:56:25.162Z,99030.50
2022-09-26T13:59:04.413Z,99033.16
2022-09-26T14:01:34.821Z,99031.75
2022-09-26T14:04:20.112Z,99021.84
2022-09-26T14:07:28.534Z,99022.53
2022-09-26T14:10:13.591Z,99020.84
2022-09-26T14:13:08.004Z,99017.63
2022-09-26T14:15:58.519Z,99012.41
2022-09-26T14:18:47.936Z,98997.03
2022-09-26T14:21:34.667Z,98987.94
2022-09-26T14:24:28.585Z,98996.78
2022-09-26T14:27:42.263Z,98990.88
2022-09-26T14:30:29.150Z,98988.00
2022-09-26T14:33:06.449Z,98993.50
2022-09-26T14:35:38.719Z,98993.84
2022-09-26T14:38:16.799Z,98997.78
2022-09-26T14:40:54.857Z,98947.63
2022-09-26T14:43:29.039Z,98992.81
2022-09-26T14:46:04.197Z,98996.97
2022-09-26T14:48:38.081Z,98996.97
2022-09-26T14:51:23.283Z,99004.75
2022-09-26T14:54:00.557Z,99002.00
2022-09-26T14:56:42.070Z,98992.66
2022-09-26T14:59:40.138Z,98996.53
2022-09-26T15:02:28.165Z,98986.22
2022-09-26T15:05:16.332Z,98975.81
2022-09-26T15:07:49.088Z,98989.63
2022-09-26T15:10:26.013Z,98991.41
2022-09-26T15:13:02.254Z,98997.09
2022-09-26T15:15:44.273Z,98993.28
2022-09-26T15:18:24.390Z,98996.31
2022-09-26T15:21:03.983Z,98986.91
2022-09-26T15:23:36.137Z,98984.59
2022-09-26T15:26:07.508Z,98997.16
2022-09-26T15:28:39.647Z,98990.03
2022-09-26T15:31:21.439Z,98991.72
2022-09-26T15:33:52.929Z,98971.09
2022-09-26T15:36:23.196Z,98980.66
2022-09-26T15:38:53.897Z,98983.44
2022-09-26T15:41:42.636Z,98988.88
2022-09-26T15:44:20.725Z,98987.19
2022-09-26T15:46:52.002Z,98990.44
2022-09-26T15:49:24.525Z,98983.38
2022-09-26T15:51:56.875Z,98986.66
2022-09-26T15:54:30.905Z,98990.25
2022-09-26T15:57:04.193Z,98983.16
2022-09-26T15:59:41.430Z,98989.31
2022-09-26T16:02:23.502Z,98993.94
2022-09-26T16:04:54.907Z,98994.19
2022-09-26T16:07:27.603Z,99001.34
2022-09-26T16:09:59.304Z,98990.88
2022-09-26T16:12:31.766Z,98991.53
2022-09-26T16:15:04.439Z,98992.25
2022-09-26T16:17:36.751Z,98987.88
2022-09-26T16:20:26.135Z,98983.22
2022-09-26T16:23:01.815Z,98973.31
2022-09-26T16:25:52.421Z,98986.84
2022-09-26T16:28:44.695Z,98980.25
2022-09-26T16:31:23.285Z,98992.38
2022-09-26T16:33:55.672Z,98989.22
2022-09-26T16:36:27.919Z,98981.16
2022-09-26T16:39:01.131Z,98982.66
2022-09-26T16:44:35.378Z,98983.53
2022-09-26T16:47:09.171Z,98986.47
2022-09-26T16:49:46.898Z,98980.44
2022-09-26T16:52:28.094Z,98976.44
2022-09-26T16:54:59.495Z,98964.81
2022-09-26T16:57:32.256Z,98973.97
2022-09-26T17:00:26.140Z,98973.38
2022-09-26T17:02:56.106Z,98971.50
2022-09-26T17:05:25.992Z,98959.41
2022-09-26T17:07:55.814Z,98971.91
2022-09-26T17:10:27.132Z,98969.88
2022-09-26T17:13:02.563Z,98971.97
2022-09-26T17:15:35.482Z,98971.97
2022-09-26T17:18:10.512Z,98959.72
2022-09-26T17:20:46.541Z,98968.25
2022-09-26T17:23:38.861Z,98964.50
2022-09-26T17:26:07.762Z,98971.16
2022-09-26T17:28:39.821Z,98974.91
2022-09-26T17:31:20.002Z,98973.88
2022-09-26T17:33:52.809Z,98987.84
2022-09-26T17:36:25.600Z,98967.47
2022-09-26T17:38:59.320Z,98978.69
2022-09-26T17:41:31.316Z,98989.31
2022-09-26T17:44:01.778Z,98979.13
2022-09-26T17:46:33.379Z,98981.84
2022-09-26T17:49:05.352Z,98976.41
2022-09-26T17:51:36.256Z,98980.59
2022-09-26T17:54:07.530Z,98979.13
2022-09-26T17:56:37.922Z,98980.81
2022-09-26T17:59:19.225Z,98979.34
2022-09-26T18:01:58.358Z,98984.53
2022-09-26T18:04:30.445Z,98973.53
2022-09-26T18:07:05.385Z,98981.66
2022-09-26T18:09:36.799Z,98971.84
2022-09-26T18:12:07.034Z,98955.00
2022-09-26T18:14:38.039Z,98963.13
2022-09-26T18:17:14.916Z,98912.94
2022-09-26T18:19:45.390Z,98953.31
2022-09-26T18:22:18.922Z,98953.75
2022-09-26T18:24:52.186Z,98946.25
2022-09-26T18:27:23.130Z,98948.34
2022-09-26T18:29:53.148Z,98947.09
2022-09-26T18:32:29.693Z,98931.91
2022-09-26T18:35:01.381Z,98941.69
2022-09-26T18:37:31.389Z,98933.75
2022-09-26T18:40:04.037Z,98936.09
2022-09-26T18:42:35.513Z,98934.19
2022-09-26T18:45:08.664Z,98937.13
2022-09-26T18:47:42.799Z,98931.28
2022-09-26T18:50:22.584Z,98940.25
2022-09-26T18:52:53.939Z,98937.91
2022-09-26T18:55:44.303Z,98937.94
2022-09-26T18:58:27.960Z,98937.50
2022-09-26T19:01:00.714Z,98935.03
2022-09-26T19:03:34.616Z,98931.28
2022-09-26T19:06:06.783Z,98943.34
2022-09-26T19:08:39.159Z,98938.56
2022-09-26T19:11:14.025Z,98939.19
2022-09-26T19:13:46.009Z,98941.69
2022-09-26T19:16:16.710Z,98948.56
2022-09-26T19:18:49.935Z,98936.91
2022-09-26T19:21:28.760Z,98939.19
2022-09-26T19:24:01.795Z,98941.06
2022-09-26T19:26:39.135Z,98934.19
2022-09-26T19:29:15.077Z,98922.13
2022-09-26T19:31:45.212Z,98913.81
2022-09-26T19:34:17.183Z,98911.31
2022-09-26T19:36:47.364Z,98921.06
2022-09-26T19:39:17.591Z,98911.72
2022-09-26T19:41:47.663Z,98906.31
2022-09-26T19:44:17.816Z,98905.47
2022-09-26T19:46:48.509Z,98899.25
2022-09-26T19:49:20.723Z,98894.66
2022-09-26T19:51:51.434Z,98889.03
2022-09-26T19:54:24.159Z,98897.56
2022-09-26T19:56:54.248Z,98890.06
2022-09-26T19:59:27.481Z,98889.47
2022-09-26T20:01:58.428Z,98888.63
2022-09-26T20:04:30.391Z,98889.66
2022-09-26T20:07:01.700Z,98892.34
2022-09-26T20:09:32.048Z,98897.97
2022-09-26T20:12:03.346Z,98894.25
2022-09-26T20:14:33.503Z,98880.50
2022-09-26T20:17:07.326Z,98892.56
2022-09-26T20:19:41.424Z,98882.16
2022-09-26T20:22:15.924Z,98881.34
2022-09-26T20:24:48.280Z,98884.88
2022-09-26T20:27:20.457Z,98878.66
2022-09-26T20:30:08.924Z,98890.50
2022-09-26T20:32:40.776Z,98885.72
2022-09-26T20:35:15.329Z,98870.72
2022-09-26T20:37:45.615Z,98883.44
2022-09-26T20:40:19.474Z,98873.03
2022-09-26T20:42:49.833Z,98878.03
2022-09-26T20:45:26.766Z,98863.03
2022-09-26T20:47:57.596Z,98852.00
2022-09-26T20:50:34.255Z,98860.53
2022-09-26T20:53:04.317Z,98861.38
2022-09-26T20:55:35.272Z,98870.50
2022-09-26T20:58:06.134Z,98856.16
2022-09-26T21:00:38.791Z,98848.03
2022-09-26T21:03:11.297Z,98843.47
2022-09-26T21:05:43.085Z,98849.91
2022-09-26T21:08:26.349Z,98848.88
2022-09-26T21:10:57.842Z,98849.72
2022-09-26T21:13:27.919Z,98854.06
2022-09-26T21:15:57.798Z,98853.03
2022-09-26T21:18:30.463Z,98858.47
2022-09-26T21:21:06.769Z,98863.44
2022-09-26T21:23:45.332Z,98861.78
2022-09-26T21:26:19.338Z,98842.66
2022-09-26T21:28:50.572Z,98840.75
2022-09-26T21:31:24.137Z,98843.47
2022-09-26T21:33:56.426Z,98845.16
2022-09-26T21:36:34.671Z,98833.28
2022-09-26T21:39:06.274Z,98831.19
2022-09-26T21:41:37.387Z,98833.28
2022-09-26T21:44:12.006Z,98837.84
2022-09-26T21:46:41.865Z,98835.56
2022-09-26T21:49:11.773Z,98839.72
2022-09-26T21:51:45.557Z,98823.94
2022-09-26T21:54:20.308Z,98816.44
2022-09-26T21:56:55.575Z,98805.41
2022-09-26T21:59:26.048Z,98804.34
2022-09-26T22:01:56.008Z,98805.41
2022-09-26T22:04:27.344Z,98810.59
2022-09-26T22:06:58.683Z,98800.59
2022-09-26T22:09:28.738Z,98784.56
2022-09-26T22:11:59.304Z,98791.22
2022-09-26T22:14:29.254Z,98767.13
2022-09-26T22:16:59.240Z,98787.09
2022-09-26T22:19:33.354Z,98790.84
2022-09-26T22:22:04.662Z,98791.66
2022-09-26T22:24:35.508Z,98791.03
2022-09-26T22:27:05.968Z,98789.16
2022-09-26T22:29:35.829Z,98793.75
2022-09-26T22:32:06.297Z,98789.59
2022-09-26T22:34:36.245Z,98785.22
2022-09-26T22:37:07.538Z,98783.97
2022-09-26T22:39:37.545Z,98780.66
2022-09-26T22:42:07.547Z,98779.59
2022-09-26T22:44:37.346Z,98762.13
2022-09-26T22:47:07.529Z,98764.22
2022-09-26T22:49:37.433Z,98761.94
2022-09-26T22:52:08.703Z,98759.63
2022-09-26T22:54:38.652Z,98762.53
2022-09-26T22:57:08.567Z,98757.72
2022-09-26T22:59:39.315Z,98762.53
2022-09-26T23:02:09.193Z,98783.56
2022-09-26T23:04:47.936Z,98772.75
2022-09-26T23:07:20.470Z,98771.69
2022-09-26T23:09:50.440Z,98775.03
2022-09-26T23:12:20.310Z,98765.47
2022-09-26T23:14:50.302Z,98768.38
2022-09-26T23:17:20.270Z,98763.19
2022-09-26T23:19:50.535Z,98759.66
2022-09-26T23:22:21.827Z,98753.22
2022-09-26T23:24:52.560Z,98754.47
2022-09-26T23:27:22.658Z,98744.25
2022-09-26T23:29:53.863Z,98736.38
2022-09-26T23:32:24.066Z,98737.63
2022-09-26T23:34:53.968Z,98733.47
2022-09-26T23:37:25.411Z,98733.47
2022-09-26T23:39:55.372Z,98719.72
2022-09-26T23:42:25.244Z,98728.91
2022-09-26T23:44:55.016Z,98715.59
2022-09-26T23:47:24.934Z,98723.50
2022-09-26T23:49:54.800Z,98726.78
2022-09-26T23:52:26.194Z,98721.59
2022-09-26T23:54:56.037Z,98727.06
2022-09-26T23:57:25.927Z,98721.22
2022-09-26T23:59:56.017Z,98720.78
